sensor_id;sensor_type;location;lat;lon;timestamp;pressure;altitude;pressure_sealevel;temperature;humidity
66385;BME280;53426;55.872;37.462;2023-04-08T00:01:49;100337.41;;;4.25;42.43
66385;BME280;53426;55.872;37.462;2023-04-08T00:04:16;100356.25;;;4.33;41.98
66385;BME280;53426;55.872;37.462;2023-04-08T00:06:42;100343.63;;;4.22;42.16
66385;BME280;53426;55.872;37.462;2023-04-08T00:09:08;100344.47;;;4.22;42.54
66385;BME280;53426;55.872;37.462;2023-04-08T00:11:33;100352.94;;;4.29;42.49
66385;BME280;53426;55.872;37.462;2023-04-08T00:14:02;100352.19;;;4.26;42.59
66385;BME280;53426;55.872;37.462;2023-04-08T00:16:28;100353.03;;;4.26;42.56
66385;BME280;53426;55.872;37.462;2023-04-08T00:18:55;100356.72;;;4.22;42.15
66385;BME280;53426;55.872;37.462;2023-04-08T00:21:24;100361.06;;;4.23;42.11
66385;BME280;53426;55.872;37.462;2023-04-08T00:23:52;100343.13;;;4.14;42.62
66385;BME280;53426;55.872;37.462;2023-04-08T00:26:18;100343.25;;;4.11;42.67
66385;BME280;53426;55.872;37.462;2023-04-08T00:28:45;100342.50;;;4.09;43.14
66385;BME280;53426;55.872;37.462;2023-04-08T00:31:11;100347.59;;;4.12;42.86
66385;BME280;53426;55.872;37.462;2023-04-08T00:33:37;100351.91;;;4.13;42.89
66385;BME280;53426;55.872;37.462;2023-04-08T00:36:03;100351.28;;;4.08;42.98
66385;BME280;53426;55.872;37.462;2023-04-08T00:38:29;100346.09;;;4.06;42.85
66385;BME280;53426;55.872;37.462;2023-04-08T00:40:56;100359.19;;;4.06;43.42
66385;BME280;53426;55.872;37.462;2023-04-08T00:43:23;100351.66;;;3.99;43.16
66385;BME280;53426;55.872;37.462;2023-04-08T00:45:49;100347.28;;;3.99;43.05
66385;BME280;53426;55.872;37.462;2023-04-08T00:48:15;100355.13;;;3.99;43.62
66385;BME280;53426;55.872;37.462;2023-04-08T00:50:43;100359.72;;;3.94;43.53
66385;BME280;53426;55.872;37.462;2023-04-08T00:53:09;100339.13;;;3.87;43.33
66385;BME280;53426;55.872;37.462;2023-04-08T00:55:36;100350.25;;;3.92;43.71
66385;BME280;53426;55.872;37.462;2023-04-08T00:58:01;100360.72;;;3.92;43.62
66385;BME280;53426;55.872;37.462;2023-04-08T01:00:29;100342.72;;;3.84;43.79
66385;BME280;53426;55.872;37.462;2023-04-08T01:03:06;100357.31;;;3.90;44.07
66385;BME280;53426;55.872;37.462;2023-04-08T01:08:15;100348.09;;;3.81;44.01
66385;BME280;53426;55.872;37.462;2023-04-08T01:10:44;100352.34;;;3.84;44.07
66385;BME280;53426;55.872;37.462;2023-04-08T01:13:16;100353.34;;;3.81;44.60
66385;BME280;53426;55.872;37.462;2023-04-08T01:15:44;100349.13;;;3.77;44.21
66385;BME280;53426;55.872;37.462;2023-04-08T01:18:12;100345.75;;;3.75;44.56
66385;BME280;53426;55.872;37.462;2023-04-08T01:20:41;100344.50;;;3.63;44.94
66385;BME280;53426;55.872;37.462;2023-04-08T01:23:52;100346.13;;;3.66;44.81
66385;BME280;53426;55.872;37.462;2023-04-08T01:26:22;100350.53;;;3.65;45.20
66385;BME280;53426;55.872;37.462;2023-04-08T01:28:56;100351.56;;;3.61;45.34
66385;BME280;53426;55.872;37.462;2023-04-08T01:31:23;100351.81;;;3.55;45.43
66385;BME280;53426;55.872;37.462;2023-04-08T01:33:50;100348.28;;;3.56;45.46
66385;BME280;53426;55.872;37.462;2023-04-08T01:36:19;100346.72;;;3.52;45.67
66385;BME280;53426;55.872;37.462;2023-04-08T01:38:47;100347.13;;;3.43;46.00
66385;BME280;53426;55.872;37.462;2023-04-08T01:41:15;100353.00;;;3.48;46.19
66385;BME280;53426;55.872;37.462;2023-04-08T01:43:42;100330.34;;;3.27;46.14
66385;BME280;53426;55.872;37.462;2023-04-08T01:46:10;100356.78;;;3.41;46.09
66385;BME280;53426;55.872;37.462;2023-04-08T01:48:37;100313.50;;;3.12;46.41
66385;BME280;53426;55.872;37.462;2023-04-08T01:51:05;100358.84;;;3.33;46.35
66385;BME280;53426;55.872;37.462;2023-04-08T01:53:32;100340.00;;;3.25;46.68
66385;BME280;53426;55.872;37.462;2023-04-08T01:56:05;100350.47;;;3.25;46.62
66385;BME280;53426;55.872;37.462;2023-04-08T01:58:38;100356.63;;;3.24;46.51
66385;BME280;53426;55.872;37.462;2023-04-08T02:01:09;100353.28;;;3.20;46.85
66385;BME280;53426;55.872;37.462;2023-04-08T02:03:36;100325.31;;;3.01;46.98
66385;BME280;53426;55.872;37.462;2023-04-08T02:06:02;100357.88;;;3.15;47.04
66385;BME280;53426;55.872;37.462;2023-04-08T02:08:28;100345.94;;;3.08;47.20
66385;BME280;53426;55.872;37.462;2023-04-08T02:10:54;100340.94;;;3.02;47.11
66385;BME280;53426;55.872;37.462;2023-04-08T02:13:20;100352.13;;;3.06;47.20
66385;BME280;53426;55.872;37.462;2023-04-08T02:15:50;100347.28;;;2.97;47.51
66385;BME280;53426;55.872;37.462;2023-04-08T02:18:24;100356.59;;;3.04;47.32
66385;BME280;53426;55.872;37.462;2023-04-08T02:20:56;100359.31;;;3.01;47.62
66385;BME280;53426;55.872;37.462;2023-04-08T02:23:27;100355.19;;;2.95;47.34
66385;BME280;53426;55.872;37.462;2023-04-08T02:25:55;100349.94;;;2.95;47.50
66385;BME280;53426;55.872;37.462;2023-04-08T02:28:26;100346.66;;;2.90;47.91
66385;BME280;53426;55.872;37.462;2023-04-08T02:30:54;100342.66;;;2.81;47.70
66385;BME280;53426;55.872;37.462;2023-04-08T02:33:22;100356.22;;;2.91;48.00
66385;BME280;53426;55.872;37.462;2023-04-08T02:35:52;100355.59;;;2.84;47.91
66385;BME280;53426;55.872;37.462;2023-04-08T02:38:19;100358.13;;;2.87;48.06
66385;BME280;53426;55.872;37.462;2023-04-08T02:40:48;100363.34;;;2.87;48.17
66385;BME280;53426;55.872;37.462;2023-04-08T02:43:14;100356.94;;;2.73;47.95
66385;BME280;53426;55.872;37.462;2023-04-08T02:45:42;100359.22;;;2.82;48.10
66385;BME280;53426;55.872;37.462;2023-04-08T02:48:09;100364.50;;;2.80;48.06
66385;BME280;53426;55.872;37.462;2023-04-08T02:50:35;100361.88;;;2.80;48.28
66385;BME280;53426;55.872;37.462;2023-04-08T02:53:02;100369.66;;;2.82;48.23
66385;BME280;53426;55.872;37.462;2023-04-08T02:55:35;100357.31;;;2.85;48.34
66385;BME280;53426;55.872;37.462;2023-04-08T02:58:01;100380.75;;;2.88;48.11
66385;BME280;53426;55.872;37.462;2023-04-08T03:00:27;100374.56;;;2.89;48.38
66385;BME280;53426;55.872;37.462;2023-04-08T03:02:53;100372.91;;;2.88;48.26
66385;BME280;53426;55.872;37.462;2023-04-08T03:05:19;100354.84;;;2.82;48.37
66385;BME280;53426;55.872;37.462;2023-04-08T03:07:44;100372.72;;;2.93;48.45
66385;BME280;53426;55.872;37.462;2023-04-08T03:10:10;100370.94;;;2.93;48.19
66385;BME280;53426;55.872;37.462;2023-04-08T03:12:37;100363.03;;;2.95;48.52
66385;BME280;53426;55.872;37.462;2023-04-08T03:15:03;100373.44;;;2.97;48.10
66385;BME280;53426;55.872;37.462;2023-04-08T03:17:30;100367.34;;;2.96;48.33
66385;BME280;53426;55.872;37.462;2023-04-08T03:20:02;100379.28;;;3.03;48.61
66385;BME280;53426;55.872;37.462;2023-04-08T03:22:32;100382.63;;;3.07;48.38
66385;BME280;53426;55.872;37.462;2023-04-08T03:24:58;100381.53;;;3.12;48.24
66385;BME280;53426;55.872;37.462;2023-04-08T03:27:25;100376.94;;;3.17;48.24
66385;BME280;53426;55.872;37.462;2023-04-08T03:29:50;100379.38;;;3.22;48.10
66385;BME280;53426;55.872;37.462;2023-04-08T03:32:17;100373.22;;;3.23;47.63
66385;BME280;53426;55.872;37.462;2023-04-08T03:34:43;100348.50;;;3.10;47.83
66385;BME280;53426;55.872;37.462;2023-04-08T03:37:09;100385.22;;;3.28;48.25
66385;BME280;53426;55.872;37.462;2023-04-08T03:39:35;100377.91;;;3.36;47.73
66385;BME280;53426;55.872;37.462;2023-04-08T03:42:01;100384.47;;;3.47;47.69
66385;BME280;53426;55.872;37.462;2023-04-08T03:44:27;100360.00;;;3.48;47.43
66385;BME280;53426;55.872;37.462;2023-04-08T03:46:53;100367.53;;;3.55;47.48
66385;BME280;53426;55.872;37.462;2023-04-08T03:49:19;100375.66;;;3.69;47.67
66385;BME280;53426;55.872;37.462;2023-04-08T03:51:45;100367.72;;;3.71;47.37
66385;BME280;53426;55.872;37.462;2023-04-08T03:54:13;100362.38;;;3.74;47.17
66385;BME280;53426;55.872;37.462;2023-04-08T03:56:39;100380.25;;;3.85;47.06
66385;BME280;53426;55.872;37.462;2023-04-08T03:59:04;100370.72;;;3.82;46.89
66385;BME280;53426;55.872;37.462;2023-04-08T04:01:31;100380.03;;;3.89;46.84
66385;BME280;53426;55.872;37.462;2023-04-08T04:03:57;100379.81;;;3.94;46.67
66385;BME280;53426;55.872;37.462;2023-04-08T04:06:23;100379.78;;;3.95;47.04
66385;BME280;53426;55.872;37.462;2023-04-08T04:08:49;100360.84;;;3.89;46.90
66385;BME280;53426;55.872;37.462;2023-04-08T04:11:15;100387.69;;;4.14;46.47
66385;BME280;53426;55.872;37.462;2023-04-08T04:13:41;100383.31;;;4.14;46.53
66385;BME280;53426;55.872;37.462;2023-04-08T04:16:07;100387.53;;;4.17;46.57
66385;BME280;53426;55.872;37.462;2023-04-08T04:18:32;100393.81;;;4.33;46.17
66385;BME280;53426;55.872;37.462;2023-04-08T04:20:58;100378.19;;;5.05;44.82
66385;BME280;53426;55.872;37.462;2023-04-08T04:23:24;100380.38;;;5.50;43.58
66385;BME280;53426;55.872;37.462;2023-04-08T04:25:50;100371.47;;;5.53;43.12
66385;BME280;53426;55.872;37.462;2023-04-08T04:28:16;100391.41;;;6.41;41.85
66385;BME280;53426;55.872;37.462;2023-04-08T04:30:42;100352.47;;;7.10;39.76
66385;BME280;53426;55.872;37.462;2023-04-08T04:33:08;100385.91;;;7.70;38.78
66385;BME280;53426;55.872;37.462;2023-04-08T04:35:34;100381.81;;;8.38;37.57
66385;BME280;53426;55.872;37.462;2023-04-08T04:38:00;100393.81;;;8.85;36.79
66385;BME280;53426;55.872;37.462;2023-04-08T04:40:26;100380.91;;;9.48;35.49
66385;BME280;53426;55.872;37.462;2023-04-08T04:42:52;100370.81;;;9.80;35.17
66385;BME280;53426;55.872;37.462;2023-04-08T04:45:17;100386.25;;;9.98;34.76
66385;BME280;53426;55.872;37.462;2023-04-08T04:47:43;100388.50;;;10.68;33.38
66385;BME280;53426;55.872;37.462;2023-04-08T04:50:09;100368.06;;;11.06;33.11
66385;BME280;53426;55.872;37.462;2023-04-08T04:52:35;100363.53;;;11.19;33.18
66385;BME280;53426;55.872;37.462;2023-04-08T04:55:02;100384.16;;;11.98;31.42
66385;BME280;53426;55.872;37.462;2023-04-08T04:57:28;100387.09;;;12.29;31.02
66385;BME280;53426;55.872;37.462;2023-04-08T04:59:54;100363.91;;;12.20;31.16
66385;BME280;53426;55.872;37.462;2023-04-08T05:05:08;100382.44;;;13.31;29.26
66385;BME280;53426;55.872;37.462;2023-04-08T05:07:37;100367.53;;;13.92;28.92
66385;BME280;53426;55.872;37.462;2023-04-08T05:10:04;100372.63;;;14.46;28.20
66385;BME280;53426;55.872;37.462;2023-04-08T05:12:31;100381.50;;;14.56;28.01
66385;BME280;53426;55.872;37.462;2023-04-08T05:14:58;100383.22;;;15.07;26.97
66385;BME280;53426;55.872;37.462;2023-04-08T05:17:24;100383.16;;;15.47;26.42
66385;BME280;53426;55.872;37.462;2023-04-08T05:19:50;100375.13;;;16.05;25.58
66385;BME280;53426;55.872;37.462;2023-04-08T05:22:20;100390.22;;;16.52;24.77
66385;BME280;53426;55.872;37.462;2023-04-08T05:24:47;100366.69;;;16.56;24.54
66385;BME280;53426;55.872;37.462;2023-04-08T05:27:14;100390.69;;;17.02;23.90
66385;BME280;53426;55.872;37.462;2023-04-08T05:29:42;100398.97;;;16.82;24.61
66385;BME280;53426;55.872;37.462;2023-04-08T05:32:08;100406.25;;;16.52;24.90
66385;BME280;53426;55.872;37.462;2023-04-08T05:34:36;100393.88;;;16.51;24.59
66385;BME280;53426;55.872;37.462;2023-04-08T05:37:03;100398.44;;;16.78;24.54
66385;BME280;53426;55.872;37.462;2023-04-08T05:39:30;100409.59;;;16.64;24.72
66385;BME280;53426;55.872;37.462;2023-04-08T05:41:56;100408.75;;;16.54;24.46
66385;BME280;53426;55.872;37.462;2023-04-08T05:44:21;100390.41;;;17.33;23.93
66385;BME280;53426;55.872;37.462;2023-04-08T05:46:47;100378.09;;;17.40;23.35
66385;BME280;53426;55.872;37.462;2023-04-08T05:49:13;100385.09;;;17.41;23.88
66385;BME280;53426;55.872;37.462;2023-04-08T05:51:40;100365.91;;;18.24;22.90
66385;BME280;53426;55.872;37.462;2023-04-08T05:54:06;100404.91;;;18.96;22.51
66385;BME280;53426;55.872;37.462;2023-04-08T05:56:39;100395.72;;;19.73;21.61
66385;BME280;53426;55.872;37.462;2023-04-08T05:59:07;100392.56;;;19.28;21.55
66385;BME280;53426;55.872;37.462;2023-04-08T06:01:33;100383.78;;;19.01;21.95
66385;BME280;53426;55.872;37.462;2023-04-08T06:03:59;100405.31;;;20.32;21.30
66385;BME280;53426;55.872;37.462;2023-04-08T06:06:25;100401.06;;;21.01;20.98
66385;BME280;53426;55.872;37.462;2023-04-08T06:08:56;100401.22;;;21.69;19.73
66385;BME280;53426;55.872;37.462;2023-04-08T06:11:21;100397.50;;;21.48;19.46
66385;BME280;53426;55.872;37.462;2023-04-08T06:13:49;100389.13;;;21.65;19.39
66385;BME280;53426;55.872;37.462;2023-04-08T06:16:17;100396.84;;;21.68;19.20
66385;BME280;53426;55.872;37.462;2023-04-08T06:18:43;100375.88;;;22.01;18.75
66385;BME280;53426;55.872;37.462;2023-04-08T06:21:09;100390.97;;;22.77;18.28
66385;BME280;53426;55.872;37.462;2023-04-08T06:23:36;100383.66;;;22.34;18.95
66385;BME280;53426;55.872;37.462;2023-04-08T06:26:03;100389.00;;;22.42;18.48
66385;BME280;53426;55.872;37.462;2023-04-08T06:28:29;100395.75;;;21.55;19.16
66385;BME280;53426;55.872;37.462;2023-04-08T06:30:56;100382.16;;;21.48;19.39
66385;BME280;53426;55.872;37.462;2023-04-08T06:33:22;100386.41;;;22.11;19.04
66385;BME280;53426;55.872;37.462;2023-04-08T06:35:50;100388.28;;;22.77;18.41
66385;BME280;53426;55.872;37.462;2023-04-08T06:38:16;100398.63;;;21.53;19.25
66385;BME280;53426;55.872;37.462;2023-04-08T06:40:42;100395.13;;;21.45;19.57
66385;BME280;53426;55.872;37.462;2023-04-08T06:43:08;100381.31;;;21.48;19.44
66385;BME280;53426;55.872;37.462;2023-04-08T06:45:38;100378.91;;;21.30;19.26
66385;BME280;53426;55.872;37.462;2023-04-08T06:48:03;100388.09;;;22.27;18.80
66385;BME280;53426;55.872;37.462;2023-04-08T06:50:31;100388.53;;;23.48;17.79
66385;BME280;53426;55.872;37.462;2023-04-08T06:57:50;100397.88;;;24.30;17.68
66385;BME280;53426;55.872;37.462;2023-04-08T07:00:16;100384.72;;;24.06;17.34
66385;BME280;53426;55.872;37.462;2023-04-08T07:02:42;100369.34;;;23.07;17.49
66385;BME280;53426;55.872;37.462;2023-04-08T07:05:17;100400.16;;;22.98;18.13
66385;BME280;53426;55.872;37.462;2023-04-08T07:07:42;100405.00;;;23.17;17.85
66385;BME280;53426;55.872;37.462;2023-04-08T07:10:08;100363.88;;;24.21;17.03
66385;BME280;53426;55.872;37.462;2023-04-08T07:12:34;100367.06;;;25.00;16.30
66385;BME280;53426;55.872;37.462;2023-04-08T07:15:00;100386.78;;;26.29;15.37
66385;BME280;53426;55.872;37.462;2023-04-08T07:17:26;100392.09;;;25.56;15.59
66385;BME280;53426;55.872;37.462;2023-04-08T07:19:52;100387.41;;;25.30;15.62
66385;BME280;53426;55.872;37.462;2023-04-08T07:22:19;100390.34;;;24.88;16.37
66385;BME280;53426;55.872;37.462;2023-04-08T07:24:45;100371.72;;;25.13;15.81
66385;BME280;53426;55.872;37.462;2023-04-08T07:27:15;100367.00;;;25.48;15.88
66385;BME280;53426;55.872;37.462;2023-04-08T07:29:41;100378.56;;;26.61;15.17
66385;BME280;53426;55.872;37.462;2023-04-08T07:32:07;100375.47;;;26.45;14.99
66385;BME280;53426;55.872;37.462;2023-04-08T07:34:36;100368.38;;;25.85;15.51
66385;BME280;53426;55.872;37.462;2023-04-08T07:37:01;100384.78;;;24.96;15.80
66385;BME280;53426;55.872;37.462;2023-04-08T07:39:27;100374.00;;;23.49;16.96
66385;BME280;53426;55.872;37.462;2023-04-08T07:41:59;100387.44;;;22.77;17.93
66385;BME280;53426;55.872;37.462;2023-04-08T07:44:25;100373.16;;;23.12;17.41
66385;BME280;53426;55.872;37.462;2023-04-08T07:46:51;100381.16;;;23.77;17.17
66385;BME280;53426;55.872;37.462;2023-04-08T07:49:17;100344.53;;;23.18;17.29
66385;BME280;53426;55.872;37.462;2023-04-08T07:51:42;100374.75;;;24.62;16.52
66385;BME280;53426;55.872;37.462;2023-04-08T07:54:08;100353.75;;;25.72;15.80
66385;BME280;53426;55.872;37.462;2023-04-08T07:56:37;100379.03;;;26.12;14.94
66385;BME280;53426;55.872;37.462;2023-04-08T07:59:05;100382.84;;;24.55;16.04
66385;BME280;53426;55.872;37.462;2023-04-08T08:01:32;100368.41;;;23.71;16.69
66385;BME280;53426;55.872;37.462;2023-04-08T08:04:00;100380.63;;;23.31;17.11
66385;BME280;53426;55.872;37.462;2023-04-08T08:06:26;100373.69;;;22.20;17.86
66385;BME280;53426;55.872;37.462;2023-04-08T08:08:52;100371.16;;;22.03;18.25
66385;BME280;53426;55.872;37.462;2023-04-08T08:11:18;100373.88;;;23.57;17.38
66385;BME280;53426;55.872;37.462;2023-04-08T08:13:44;100363.06;;;23.21;17.28
66385;BME280;53426;55.872;37.462;2023-04-08T08:16:10;100379.16;;;21.66;18.40
66385;BME280;53426;55.872;37.462;2023-04-08T08:18:36;100375.88;;;20.23;19.87
66385;BME280;53426;55.872;37.462;2023-04-08T08:21:03;100366.09;;;20.46;19.62
66385;BME280;53426;55.872;37.462;2023-04-08T08:23:29;100362.47;;;20.78;19.34
66385;BME280;53426;55.872;37.462;2023-04-08T08:26:01;100369.94;;;21.38;19.18
66385;BME280;53426;55.872;37.462;2023-04-08T08:28:28;100359.41;;;21.74;18.51
66385;BME280;53426;55.872;37.462;2023-04-08T08:30:53;100369.50;;;22.32;18.28
66385;BME280;53426;55.872;37.462;2023-04-08T08:33:19;100355.59;;;22.72;17.65
66385;BME280;53426;55.872;37.462;2023-04-08T08:36:11;100370.56;;;22.60;17.98
66385;BME280;53426;55.872;37.462;2023-04-08T08:38:37;100366.78;;;22.17;18.03
66385;BME280;53426;55.872;37.462;2023-04-08T08:41:05;100358.63;;;22.40;17.25
66385;BME280;53426;55.872;37.462;2023-04-08T08:43:31;100328.88;;;23.70;16.67
66385;BME280;53426;55.872;37.462;2023-04-08T08:46:01;100374.44;;;24.78;15.74
66385;BME280;53426;55.872;37.462;2023-04-08T08:48:26;100348.31;;;23.59;16.08
66385;BME280;53426;55.872;37.462;2023-04-08T08:50:52;100306.53;;;22.69;16.68
66385;BME280;53426;55.872;37.462;2023-04-08T08:53:18;100300.69;;;21.61;17.30
66385;BME280;53426;55.872;37.462;2023-04-08T08:55:45;100295.28;;;22.36;16.90
66385;BME280;53426;55.872;37.462;2023-04-08T08:58:11;100288.75;;;22.16;16.71
66385;BME280;53426;55.872;37.462;2023-04-08T09:01:35;100347.34;;;22.07;17.65
66385;BME280;53426;55.872;37.462;2023-04-08T09:04:12;100351.09;;;22.94;16.84
66385;BME280;53426;55.872;37.462;2023-04-08T09:22:57;100335.81;;;25.04;15.74
66385;BME280;53426;55.872;37.462;2023-04-08T09:25:31;100353.69;;;24.02;15.55
66385;BME280;53426;55.872;37.462;2023-04-08T09:27:58;100339.09;;;22.67;16.14
66385;BME280;53426;55.872;37.462;2023-04-08T09:30:25;100358.81;;;22.24;16.76
66385;BME280;53426;55.872;37.462;2023-04-08T09:32:57;100334.94;;;22.79;16.66
66385;BME280;53426;55.872;37.462;2023-04-08T09:35:24;100345.81;;;23.22;16.00
66385;BME280;53426;55.872;37.462;2023-04-08T09:37:59;100239.38;;;22.80;16.13
66385;BME280;53426;55.872;37.462;2023-04-08T09:40:28;100221.13;;;22.17;15.94
66385;BME280;53426;55.872;37.462;2023-04-08T09:43:59;100305.91;;;23.24;15.91
66385;BME280;53426;55.872;37.462;2023-04-08T09:46:50;100339.84;;;23.84;16.42
66385;BME280;53426;55.872;37.462;2023-04-08T09:53:33;100349.03;;;22.23;17.27
66385;BME280;53426;55.872;37.462;2023-04-08T09:56:01;100315.81;;;22.22;17.27
66385;BME280;53426;55.872;37.462;2023-04-08T09:58:33;100304.66;;;23.41;16.60
66385;BME280;53426;55.872;37.462;2023-04-08T10:06:57;100260.75;;;22.46;16.60
66385;BME280;53426;55.872;37.462;2023-04-08T10:09:27;100257.16;;;22.75;16.30
66385;BME280;53426;55.872;37.462;2023-04-08T10:12:00;100325.41;;;22.69;17.20
66385;BME280;53426;55.872;37.462;2023-04-08T10:14:29;100327.75;;;21.90;17.22
66385;BME280;53426;55.872;37.462;2023-04-08T10:17:24;100329.13;;;22.53;17.05
66385;BME280;53426;55.872;37.462;2023-04-08T10:19:53;100293.56;;;22.05;17.11
66385;BME280;53426;55.872;37.462;2023-04-08T10:22:47;100316.31;;;23.63;16.88
66385;BME280;53426;55.872;37.462;2023-04-08T10:27:44;100223.56;;;20.38;17.82
66385;BME280;53426;55.872;37.462;2023-04-08T10:33:08;100184.19;;;21.59;17.11
66385;BME280;53426;55.872;37.462;2023-04-08T10:38:24;100307.78;;;23.59;16.32
66385;BME280;53426;55.872;37.462;2023-04-08T10:40:50;100281.94;;;23.14;16.77
66385;BME280;53426;55.872;37.462;2023-04-08T10:43:17;100305.88;;;23.39;16.61
66385;BME280;53426;55.872;37.462;2023-04-08T10:45:46;100297.03;;;22.73;17.34
66385;BME280;53426;55.872;37.462;2023-04-08T10:48:39;100315.09;;;22.72;17.21
66385;BME280;53426;55.872;37.462;2023-04-08T10:51:08;100238.47;;;21.85;17.82
66385;BME280;53426;55.872;37.462;2023-04-08T10:53:37;100278.16;;;21.16;18.58
66385;BME280;53426;55.872;37.462;2023-04-08T10:58:57;100306.19;;;19.89;20.25
66385;BME280;53426;55.872;37.462;2023-04-08T11:01:24;100302.31;;;19.91;19.99
66385;BME280;53426;55.872;37.462;2023-04-08T11:03:51;100272.28;;;19.80;20.27
66385;BME280;53426;55.872;37.462;2023-04-08T11:06:17;100298.41;;;20.10;20.00
66385;BME280;53426;55.872;37.462;2023-04-08T11:08:44;100313.25;;;19.66;20.57
66385;BME280;53426;55.872;37.462;2023-04-08T11:11:12;100242.88;;;18.97;21.07
66385;BME280;53426;55.872;37.462;2023-04-08T11:14:06;100286.91;;;19.69;20.72
66385;BME280;53426;55.872;37.462;2023-04-08T11:16:40;100200.69;;;18.15;21.87
66385;BME280;53426;55.872;37.462;2023-04-08T11:19:08;100242.47;;;18.60;21.88
66385;BME280;53426;55.872;37.462;2023-04-08T11:21:35;100269.00;;;18.11;22.59
66385;BME280;53426;55.872;37.462;2023-04-08T11:24:05;100256.84;;;17.65;23.43
66385;BME280;53426;55.872;37.462;2023-04-08T11:26:32;100265.78;;;16.67;23.75
66385;BME280;53426;55.872;37.462;2023-04-08T11:29:09;100187.22;;;15.59;24.25
66385;BME280;53426;55.872;37.462;2023-04-08T11:31:42;100246.78;;;15.60;24.10
66385;BME280;53426;55.872;37.462;2023-04-08T11:34:08;100210.41;;;15.01;25.15
66385;BME280;53426;55.872;37.462;2023-04-08T11:36:59;100270.50;;;15.43;24.71
66385;BME280;53426;55.872;37.462;2023-04-08T11:39:26;100182.22;;;14.50;26.16
66385;BME280;53426;55.872;37.462;2023-04-08T11:44:50;100257.03;;;14.97;25.63
66385;BME280;53426;55.872;37.462;2023-04-08T11:47:17;100232.91;;;14.89;25.38
66385;BME280;53426;55.872;37.462;2023-04-08T11:49:44;100161.66;;;14.22;25.56
66385;BME280;53426;55.872;37.462;2023-04-08T11:52:11;100233.81;;;14.59;26.22
66385;BME280;53426;55.872;37.462;2023-04-08T11:54:58;100277.88;;;14.63;25.77
66385;BME280;53426;55.872;37.462;2023-04-08T11:57:47;100134.72;;;13.75;26.95
66385;BME280;53426;55.872;37.462;2023-04-08T12:01:28;100250.47;;;14.11;27.33
66385;BME280;53426;55.872;37.462;2023-04-08T12:03:55;100226.25;;;14.24;26.88
66385;BME280;53426;55.872;37.462;2023-04-08T12:06:24;100221.50;;;14.18;26.97
66385;BME280;53426;55.872;37.462;2023-04-08T12:08:55;100215.75;;;14.22;27.13
66385;BME280;53426;55.872;37.462;2023-04-08T12:11:21;100222.50;;;14.36;26.74
66385;BME280;53426;55.872;37.462;2023-04-08T12:13:49;100230.91;;;14.22;27.01
66385;BME280;53426;55.872;37.462;2023-04-08T12:16:15;100203.84;;;13.87;27.67
66385;BME280;53426;55.872;37.462;2023-04-08T12:18:47;100245.41;;;14.08;27.43
66385;BME280;53426;55.872;37.462;2023-04-08T12:21:16;100225.88;;;13.98;28.60
66385;BME280;53426;55.872;37.462;2023-04-08T12:23:43;100260.28;;;14.41;27.69
66385;BME280;53426;55.872;37.462;2023-04-08T12:26:11;100206.06;;;14.12;27.38
66385;BME280;53426;55.872;37.462;2023-04-08T12:28:37;100199.78;;;13.92;26.68
66385;BME280;53426;55.872;37.462;2023-04-08T12:31:05;100244.41;;;14.00;27.19
66385;BME280;53426;55.872;37.462;2023-04-08T12:33:32;100241.34;;;14.04;27.50
66385;BME280;53426;55.872;37.462;2023-04-08T12:35:57;100233.75;;;14.00;27.01
66385;BME280;53426;55.872;37.462;2023-04-08T12:38:30;100229.03;;;13.82;27.26
66385;BME280;53426;55.872;37.462;2023-04-08T12:40:56;100223.72;;;13.82;27.39
66385;BME280;53426;55.872;37.462;2023-04-08T12:43:22;100237.16;;;13.81;27.71
66385;BME280;53426;55.872;37.462;2023-04-08T12:45:49;100221.53;;;13.67;28.09
66385;BME280;53426;55.872;37.462;2023-04-08T12:48:15;100220.97;;;13.63;28.26
66385;BME280;53426;55.872;37.462;2023-04-08T12:50:41;100226.13;;;13.65;28.31
66385;BME280;53426;55.872;37.462;2023-04-08T12:53:07;100217.31;;;13.64;28.43
66385;BME280;53426;55.872;37.462;2023-04-08T12:55:34;100215.28;;;13.77;28.83
66385;BME280;53426;55.872;37.462;2023-04-08T12:58:03;100216.13;;;13.78;28.88
66385;BME280;53426;55.872;37.462;2023-04-08T13:00:30;100212.63;;;13.77;28.58
66385;BME280;53426;55.872;37.462;2023-04-08T13:02:56;100214.44;;;13.77;29.01
66385;BME280;53426;55.872;37.462;2023-04-08T13:05:22;100206.41;;;13.67;28.44
66385;BME280;53426;55.872;37.462;2023-04-08T13:07:48;100209.31;;;13.64;29.06
66385;BME280;53426;55.872;37.462;2023-04-08T13:10:14;100201.41;;;13.53;29.02
66385;BME280;53426;55.872;37.462;2023-04-08T13:12:40;100182.75;;;13.44;28.92
66385;BME280;53426;55.872;37.462;2023-04-08T13:15:06;100186.06;;;13.57;28.78
66385;BME280;53426;55.872;37.462;2023-04-08T13:17:32;100202.59;;;13.60;27.99
66385;BME280;53426;55.872;37.462;2023-04-08T13:19:58;100207.19;;;13.58;28.44
66385;BME280;53426;55.872;37.462;2023-04-08T13:22:24;100201.03;;;13.37;29.27
66385;BME280;53426;55.872;37.462;2023-04-08T13:24:49;100188.81;;;13.25;29.59
66385;BME280;53426;55.872;37.462;2023-04-08T13:27:15;100196.28;;;13.31;29.76
66385;BME280;53426;55.872;37.462;2023-04-08T13:29:42;100186.78;;;13.17;29.77
66385;BME280;53426;55.872;37.462;2023-04-08T13:32:07;100195.66;;;13.27;30.09
66385;BME280;53426;55.872;37.462;2023-04-08T13:34:33;100197.47;;;13.27;29.95
66385;BME280;53426;55.872;37.462;2023-04-08T13:36:59;100180.38;;;13.40;29.53
66385;BME280;53426;55.872;37.462;2023-04-08T13:39:25;100172.22;;;13.42;29.23
66385;BME280;53426;55.872;37.462;2023-04-08T13:41:51;100185.38;;;13.64;29.69